createdAt,value
2022-12-18T00:00:49.944Z,68.18
2022-12-18T00:03:17.076Z,76.03
2022-12-18T00:05:48.736Z,78.55
2022-12-18T00:08:16.054Z,73.78
2022-12-18T00:10:43.177Z,70.43
2022-12-18T00:13:10.377Z,85.88
2022-12-18T00:15:37.978Z,77.97
2022-12-18T00:18:05.016Z,79.72
2022-12-18T00:20:32.057Z,71.82
2022-12-18T00:22:58.986Z,81.70
2022-12-18T00:25:25.926Z,75.88
2022-12-18T00:27:52.794Z,76.35
2022-12-18T00:30:19.814Z,61.53
2022-12-18T00:32:46.908Z,74.88
2022-12-18T00:35:13.776Z,79.60
2022-12-18T00:37:40.724Z,80.13
2022-12-18T00:40:08.500Z,64.97
2022-12-18T00:42:53.939Z,63.17
2022-12-18T00:45:21.111Z,65.72
2022-12-18T00:47:48.023Z,69.68
2022-12-18T00:50:14.983Z,71.63
2022-12-18T00:52:42.086Z,85.50
2022-12-18T00:55:09.218Z,63.35
2022-12-18T00:57:36.171Z,91.60
2022-12-18T01:00:05.874Z,86.55
2022-12-18T01:02:32.950Z,84.72
2022-12-18T01:04:59.961Z,73.18
2022-12-18T01:07:26.846Z,83.10
2022-12-18T01:09:53.867Z,68.78
2022-12-18T01:12:20.730Z,75.53
2022-12-18T01:14:51.400Z,70.15
2022-12-18T01:17:18.364Z,76.55
2022-12-18T01:19:45.248Z,78.75
2022-12-18T01:22:12.189Z,79.40
2022-12-18T01:24:39.052Z,81.32
2022-12-18T01:27:05.963Z,74.25
2022-12-18T01:29:32.890Z,72.65
2022-12-18T01:31:59.912Z,77.03
2022-12-18T01:34:27.041Z,73.55
2022-12-18T01:36:53.991Z,68.78
2022-12-18T01:39:20.924Z,74.15
2022-12-18T01:42:05.923Z,87.32
2022-12-18T01:44:59.000Z,70.07
2022-12-18T01:47:39.563Z,69.10
2022-12-18T01:50:22.577Z,68.82
2022-12-18T01:53:14.269Z,63.92
2022-12-18T01:55:52.229Z,72.20
2022-12-18T01:58:20.019Z,63.25
2022-12-18T02:00:47.061Z,64.57
2022-12-18T02:03:14.208Z,64.63
2022-12-18T02:05:54.211Z,58.17
2022-12-18T02:08:32.792Z,61.38
2022-12-18T02:11:16.917Z,60.08
2022-12-18T02:14:02.528Z,55.73
2022-12-18T02:16:48.728Z,59.95
2022-12-18T02:19:30.918Z,67.65
2022-12-18T02:22:08.383Z,67.47
2022-12-18T02:24:40.614Z,54.35
2022-12-18T02:27:08.131Z,62.03
2022-12-18T02:29:58.638Z,62.60
2022-12-18T02:32:36.856Z,51.88
2022-12-18T02:35:04.789Z,48.58
2022-12-18T02:37:32.721Z,55.15
2022-12-18T02:40:02.319Z,59.33
2022-12-18T02:42:30.876Z,53.10
2022-12-18T02:44:59.116Z,48.53
2022-12-18T02:47:31.102Z,58.08
2022-12-18T02:50:13.120Z,55.83
2022-12-18T02:53:05.053Z,58.78
2022-12-18T02:55:47.264Z,51.88
2022-12-18T02:58:53.797Z,54.17
2022-12-18T03:01:44.774Z,58.83
2022-12-18T03:04:16.967Z,66.25
2022-12-18T03:06:46.985Z,55.33
2022-12-18T03:09:21.095Z,65.07
2022-12-18T03:12:09.549Z,58.45
2022-12-18T03:14:36.535Z,59.03
2022-12-18T03:17:04.578Z,58.70
2022-12-18T03:19:33.744Z,60.90
2022-12-18T03:22:03.403Z,58.63
2022-12-18T03:24:40.653Z,54.38
2022-12-18T03:27:11.728Z,63.85
2022-12-18T03:29:46.448Z,61.50
2022-12-18T03:32:31.023Z,52.78
2022-12-18T03:35:00.824Z,52.80
2022-12-18T03:37:31.697Z,61.92
2022-12-18T03:39:58.690Z,59.17
2022-12-18T03:42:31.231Z,54.85
2022-12-18T03:45:33.098Z,60.08
2022-12-18T03:48:29.507Z,65.07
2022-12-18T03:51:03.214Z,54.65
2022-12-18T03:53:50.215Z,61.17
2022-12-18T03:56:19.175Z,59.08
2022-12-18T03:58:46.138Z,58.30
2022-12-18T04:01:29.982Z,62.15
2022-12-18T04:03:57.246Z,54.20
2022-12-18T04:06:24.878Z,50.38
2022-12-18T04:08:52.285Z,57.85
2022-12-18T04:11:22.259Z,63.65
2022-12-18T04:13:49.244Z,58.20
2022-12-18T04:16:23.284Z,58.40
2022-12-18T04:18:53.741Z,60.92
2022-12-18T04:21:21.784Z,57.30
2022-12-18T04:23:49.980Z,56.53
2022-12-18T04:26:19.691Z,69.53
2022-12-18T04:29:06.553Z,59.88
2022-12-18T04:31:33.721Z,62.80
2022-12-18T04:34:00.792Z,54.80
2022-12-18T04:36:28.597Z,64.22
2022-12-18T04:38:56.266Z,57.67
2022-12-18T04:41:23.682Z,53.58
2022-12-18T04:43:52.767Z,58.53
2022-12-18T04:46:19.842Z,66.75
2022-12-18T04:48:46.970Z,60.08
2022-12-18T04:51:14.115Z,75.80
2022-12-18T04:53:41.342Z,57.45
2022-12-18T04:56:13.058Z,62.78
2022-12-18T04:58:40.465Z,61.70
2022-12-18T05:01:08.583Z,56.03
2022-12-18T05:03:35.863Z,72.72
2022-12-18T05:06:02.820Z,62.03
2022-12-18T05:08:29.704Z,61.35
2022-12-18T05:11:17.687Z,54.47
2022-12-18T05:13:45.395Z,52.72
2022-12-18T05:16:12.551Z,59.33
2022-12-18T05:18:39.608Z,58.70
2022-12-18T05:21:06.770Z,58.15
2022-12-18T05:23:33.725Z,55.38
2022-12-18T05:26:02.841Z,56.95
2022-12-18T05:28:30.996Z,61.22
2022-12-18T05:31:01.731Z,54.88
2022-12-18T05:33:31.007Z,57.30
2022-12-18T05:35:59.284Z,58.53
2022-12-18T05:38:26.938Z,56.67
2022-12-18T05:40:54.138Z,72.57
2022-12-18T05:43:21.845Z,68.63
2022-12-18T05:45:49.005Z,68.35
2022-12-18T05:48:16.082Z,61.63
2022-12-18T05:50:43.808Z,56.90
2022-12-18T05:53:10.797Z,69.25
2022-12-18T05:55:38.596Z,72.50
2022-12-18T05:58:05.712Z,94.38
2022-12-18T06:00:33.764Z,69.40
2022-12-18T06:03:00.904Z,60.42
2022-12-18T06:05:27.900Z,68.15
2022-12-18T06:07:54.828Z,69.93
2022-12-18T06:10:21.699Z,66.30
2022-12-18T06:12:48.642Z,64.97
2022-12-18T06:15:15.597Z,67.25
2022-12-18T06:17:43.818Z,63.83
2022-12-18T06:20:12.078Z,79.57
2022-12-18T06:22:39.066Z,62.63
2022-12-18T06:25:07.200Z,73.22
2022-12-18T06:27:34.989Z,84.22
2022-12-18T06:30:02.039Z,60.75
2022-12-18T06:32:29.070Z,66.40
2022-12-18T06:34:56.486Z,68.90
2022-12-18T06:37:27.120Z,63.97
2022-12-18T06:39:57.797Z,75.70
2022-12-18T06:42:25.405Z,66.22
2022-12-18T06:44:52.285Z,63.05
2022-12-18T06:47:19.617Z,64.05
2022-12-18T06:49:46.549Z,63.92
2022-12-18T06:52:13.463Z,63.58
2022-12-18T06:54:40.426Z,63.13
2022-12-18T06:57:07.350Z,72.70
2022-12-18T06:59:34.292Z,70.97
2022-12-18T07:02:01.410Z,74.65
2022-12-18T07:04:31.726Z,69.20
2022-12-18T07:06:58.714Z,73.85
2022-12-18T07:09:25.786Z,69.55
2022-12-18T07:11:53.647Z,62.58
2022-12-18T07:14:20.629Z,76.90
2022-12-18T07:16:47.675Z,64.65
2022-12-18T07:19:14.595Z,61.95
2022-12-18T07:21:41.509Z,68.32
2022-12-18T07:24:08.737Z,69.60
2022-12-18T07:26:35.634Z,58.63
2022-12-18T07:29:02.460Z,65.07
2022-12-18T07:31:29.597Z,59.92
2022-12-18T07:33:56.732Z,74.47
2022-12-18T07:36:23.655Z,70.88
2022-12-18T07:38:50.749Z,69.90
2022-12-18T07:41:17.774Z,72.63
2022-12-18T07:43:44.964Z,81.60
2022-12-18T07:46:14.857Z,69.82
2022-12-18T07:48:42.776Z,73.63
2022-12-18T07:51:13.658Z,71.22
2022-12-18T07:53:41.146Z,67.25
2022-12-18T07:56:28.101Z,72.63
2022-12-18T07:58:55.935Z,78.70
2022-12-18T08:01:25.704Z,56.70
2022-12-18T08:03:56.906Z,75.13
2022-12-18T08:06:24.490Z,72.15
2022-12-18T08:08:55.197Z,71.45
2022-12-18T08:11:22.379Z,73.15
2022-12-18T08:13:49.469Z,70.38
2022-12-18T08:16:16.968Z,66.32
2022-12-18T08:18:44.078Z,62.83
2022-12-18T08:21:11.564Z,67.32
2022-12-18T08:23:42.703Z,53.78
2022-12-18T08:26:10.808Z,60.55
2022-12-18T08:28:37.693Z,60.38
2022-12-18T08:31:05.152Z,66.25
2022-12-18T08:33:32.587Z,61.53
2022-12-18T08:36:00.179Z,74.65
2022-12-18T08:38:27.032Z,72.57
2022-12-18T08:41:04.606Z,64.10
2022-12-18T08:43:50.162Z,71.30
2022-12-18T08:46:17.514Z,61.92
2022-12-18T08:48:44.797Z,57.60
2022-12-18T08:51:12.119Z,68.75
2022-12-18T08:53:39.520Z,73.95
2022-12-18T08:56:07.111Z,74.53
2022-12-18T08:58:33.956Z,65.85
2022-12-18T09:01:03.932Z,68.03
2022-12-18T09:03:31.027Z,59.60
2022-12-18T09:05:58.034Z,62.88
2022-12-18T09:08:24.962Z,59.65
2022-12-18T09:10:51.946Z,56.78
2022-12-18T09:13:18.966Z,54.42
2022-12-18T09:15:47.457Z,55.75
2022-12-18T09:18:15.070Z,73.93
2022-12-18T09:20:42.104Z,53.97
2022-12-18T09:23:09.981Z,62.90
2022-12-18T09:25:37.058Z,72.70
2022-12-18T09:28:10.464Z,63.25
2022-12-18T09:30:45.343Z,67.43
2022-12-18T09:33:12.381Z,77.82
2022-12-18T09:35:39.886Z,65.13
2022-12-18T09:38:07.001Z,76.72
2022-12-18T09:40:45.156Z,75.13
2022-12-18T09:43:28.279Z,72.70
2022-12-18T09:45:59.008Z,71.73
2022-12-18T09:48:46.451Z,60.92
2022-12-18T09:51:20.275Z,59.72
2022-12-18T09:56:17.811Z,53.35
2022-12-18T09:59:19.437Z,64.15
2022-12-18T10:01:47.449Z,56.13
2022-12-18T10:04:14.525Z,70.57
2022-12-18T10:06:49.996Z,73.88
2022-12-18T10:09:37.830Z,64.55
2022-12-18T10:12:30.644Z,73.18
2022-12-18T10:15:21.975Z,54.38
2022-12-18T10:18:00.873Z,74.35
2022-12-18T10:20:41.695Z,68.28
2022-12-18T10:23:23.450Z,66.70
2022-12-18T10:26:10.372Z,60.42
2022-12-18T10:28:38.113Z,63.28
2022-12-18T10:31:07.069Z,57.38
2022-12-18T10:33:34.562Z,68.65
2022-12-18T10:36:01.827Z,68.65
2022-12-18T10:38:29.966Z,60.92
2022-12-18T10:41:09.754Z,75.05
2022-12-18T10:43:37.973Z,64.60
2022-12-18T10:46:10.761Z,61.83
2022-12-18T10:48:41.956Z,66.87
2022-12-18T10:51:12.072Z,64.35
2022-12-18T10:53:41.486Z,67.38
2022-12-18T10:56:08.334Z,63.72
2022-12-18T10:58:36.528Z,71.32
2022-12-18T11:01:17.367Z,68.93
2022-12-18T11:03:46.050Z,67.40
2022-12-18T11:06:25.215Z,70.07
2022-12-18T11:09:05.351Z,69.28
2022-12-18T11:11:34.992Z,66.50
2022-12-18T11:14:06.686Z,68.68
2022-12-18T11:16:38.667Z,69.53
2022-12-18T11:19:29.875Z,77.97
2022-12-18T11:21:56.944Z,79.85
2022-12-18T11:24:42.032Z,67.78
2022-12-18T11:27:17.007Z,80.20
2022-12-18T11:29:46.767Z,74.45
2022-12-18T11:32:22.431Z,73.68
2022-12-18T11:34:54.713Z,70.68
2022-12-18T11:37:26.785Z,66.47
2022-12-18T11:40:02.918Z,73.18
2022-12-18T11:42:49.993Z,74.18
2022-12-18T11:45:37.583Z,68.38
2022-12-18T11:48:33.942Z,70.90
2022-12-18T11:51:01.721Z,64.47
2022-12-18T11:53:28.641Z,69.03
2022-12-18T11:56:04.741Z,66.18
2022-12-18T11:58:46.585Z,70.28
2022-12-18T12:01:22.260Z,75.20
2022-12-18T12:03:58.337Z,78.15
2022-12-18T12:06:41.841Z,78.13
2022-12-18T12:09:20.795Z,80.55
2022-12-18T12:12:05.769Z,78.47
2022-12-18T12:14:58.867Z,78.68
2022-12-18T12:17:50.931Z,74.57
2022-12-18T12:20:20.494Z,72.20
2022-12-18T12:22:59.908Z,68.72
2022-12-18T12:25:34.997Z,73.47
2022-12-18T12:28:20.726Z,83.53
2022-12-18T12:30:59.690Z,66.30
2022-12-18T12:33:32.878Z,75.32
2022-12-18T12:36:21.266Z,64.72
2022-12-18T12:38:52.350Z,66.40
2022-12-18T12:41:51.122Z,75.57
2022-12-18T12:44:33.599Z,80.25
2022-12-18T12:47:11.274Z,69.15
2022-12-18T12:49:40.762Z,73.35
2022-12-18T12:52:16.611Z,76.25
2022-12-18T12:54:43.816Z,69.85
2022-12-18T12:57:12.798Z,77.13
2022-12-18T13:00:09.896Z,68.20
2022-12-18T13:02:57.274Z,75.60
2022-12-18T13:05:32.614Z,71.22
2022-12-18T13:08:04.908Z,74.28
2022-12-18T13:10:40.705Z,69.13
2022-12-18T13:13:09.022Z,60.10
2022-12-18T13:16:07.879Z,63.25
2022-12-18T13:18:34.879Z,73.75
2022-12-18T13:21:03.809Z,70.55
2022-12-18T13:23:34.004Z,69.80
2022-12-18T13:26:07.424Z,67.63
2022-12-18T13:28:34.485Z,75.25
2022-12-18T13:31:02.323Z,58.42
2022-12-18T13:33:35.148Z,71.82
2022-12-18T13:36:03.252Z,84.77
2022-12-18T13:38:33.035Z,68.68
2022-12-18T13:41:03.063Z,78.00
2022-12-18T13:43:35.330Z,66.72
2022-12-18T13:46:19.575Z,70.28
2022-12-18T13:51:22.791Z,76.90
2022-12-18T13:54:01.469Z,72.18
2022-12-18T13:56:31.008Z,68.55
2022-12-18T13:59:15.615Z,67.75
2022-12-18T14:02:10.531Z,69.55
2022-12-18T14:04:37.669Z,67.40
2022-12-18T14:07:07.560Z,61.40
2022-12-18T14:09:41.411Z,69.13
2022-12-18T14:12:51.771Z,62.58
2022-12-18T14:15:24.337Z,79.75
2022-12-18T14:18:28.238Z,79.78
2022-12-18T14:20:59.603Z,75.18
2022-12-18T14:23:35.559Z,79.60
2022-12-18T14:26:05.997Z,80.07
2022-12-18T14:28:33.318Z,68.00
2022-12-18T14:31:00.325Z,74.10
2022-12-18T14:33:29.345Z,86.05
2022-12-18T14:35:56.220Z,79.30
2022-12-18T14:38:33.272Z,86.43
2022-12-18T14:41:05.162Z,74.68
2022-12-18T14:43:39.892Z,86.68
2022-12-18T14:46:26.477Z,71.25
2022-12-18T14:48:53.571Z,67.97
2022-12-18T14:51:25.145Z,68.78
2022-12-18T14:53:58.930Z,67.15
2022-12-18T14:56:27.660Z,67.72
2022-12-18T14:59:00.427Z,62.13
2022-12-18T15:01:33.370Z,65.33
2022-12-18T15:04:00.836Z,66.72
2022-12-18T15:06:33.186Z,65.65
2022-12-18T15:09:05.858Z,61.35
2022-12-18T15:11:42.003Z,62.50
2022-12-18T15:14:40.928Z,68.47
2022-12-18T15:17:20.161Z,61.28
2022-12-18T15:19:47.624Z,59.75
2022-12-18T15:22:21.826Z,64.00
2022-12-18T15:24:49.270Z,61.53
2022-12-18T15:27:33.523Z,70.82
2022-12-18T15:30:12.616Z,65.75
2022-12-18T15:32:42.300Z,66.82
2022-12-18T15:35:09.233Z,65.43
2022-12-18T15:37:36.357Z,65.80
2022-12-18T15:40:03.692Z,69.55
2022-12-18T15:42:49.255Z,63.65
2022-12-18T15:45:16.445Z,66.45
2022-12-18T15:47:45.761Z,66.85
2022-12-18T15:50:12.793Z,63.55
2022-12-18T15:52:44.404Z,65.78
2022-12-18T15:55:37.775Z,70.50
2022-12-18T15:58:06.086Z,61.60
2022-12-18T16:00:33.983Z,66.63
2022-12-18T16:03:01.217Z,71.38
2022-12-18T16:05:28.391Z,63.80
2022-12-18T16:07:55.382Z,74.45
2022-12-18T16:10:22.439Z,67.00
2022-12-18T16:12:49.401Z,67.45
2022-12-18T16:15:21.096Z,63.22
2022-12-18T16:17:53.667Z,73.03
2022-12-18T16:20:22.510Z,73.53
2022-12-18T16:22:49.813Z,75.65
2022-12-18T16:25:26.716Z,87.20
2022-12-18T16:27:55.245Z,84.15
2022-12-18T16:30:32.794Z,75.40
2022-12-18T16:33:05.089Z,96.25
2022-12-18T16:35:32.056Z,80.70
2022-12-18T16:37:59.028Z,92.88
2022-12-18T16:40:26.038Z,98.38
2022-12-18T16:42:53.108Z,97.20
2022-12-18T16:45:20.077Z,93.72
2022-12-18T16:47:47.082Z,97.85
2022-12-18T16:50:14.131Z,91.85
2022-12-18T16:52:41.289Z,92.20
2022-12-18T16:55:08.605Z,82.07
2022-12-18T16:57:35.597Z,88.55
2022-12-18T17:00:05.569Z,80.03
2022-12-18T17:02:33.607Z,71.22
2022-12-18T17:05:00.801Z,80.03
2022-12-18T17:07:28.454Z,75.55
2022-12-18T17:09:55.593Z,70.22
2022-12-18T17:12:22.860Z,77.68
2022-12-18T17:14:49.857Z,75.32
2022-12-18T17:17:22.223Z,71.43
2022-12-18T17:19:50.310Z,78.97
2022-12-18T17:22:17.232Z,74.93
2022-12-18T17:24:44.245Z,69.97
2022-12-18T17:27:11.155Z,69.72
2022-12-18T17:29:42.474Z,73.30
2022-12-18T17:32:13.679Z,80.13
2022-12-18T17:34:40.950Z,75.80
2022-12-18T17:37:08.207Z,72.03
2022-12-18T17:39:35.201Z,59.33
2022-12-18T17:42:02.139Z,62.20
2022-12-18T17:44:29.071Z,65.32
2022-12-18T17:46:56.524Z,61.95
2022-12-18T17:49:23.517Z,62.08
2022-12-18T17:51:50.485Z,65.05
2022-12-18T17:54:17.556Z,72.55
2022-12-18T17:56:44.476Z,63.70
2022-12-18T17:59:11.734Z,61.80
2022-12-18T18:01:44.081Z,69.75
2022-12-18T18:04:12.261Z,71.85
2022-12-18T18:06:39.614Z,56.75
2022-12-18T18:09:16.263Z,66.07
2022-12-18T18:12:03.733Z,60.80
2022-12-18T18:14:30.972Z,58.17
2022-12-18T18:17:04.103Z,66.78
2022-12-18T18:19:32.176Z,59.60
2022-12-18T18:21:59.046Z,60.03
2022-12-18T18:24:26.354Z,60.85
2022-12-18T18:26:53.542Z,62.45
2022-12-18T18:29:23.322Z,61.75
2022-12-18T18:31:50.442Z,62.67
2022-12-18T18:34:18.724Z,58.08
2022-12-18T18:36:46.402Z,74.95
2022-12-18T18:39:13.849Z,71.60
2022-12-18T18:41:40.967Z,78.38
2022-12-18T18:44:11.236Z,75.53
2022-12-18T18:46:38.198Z,73.13
2022-12-18T18:49:05.840Z,75.30
2022-12-18T18:51:35.091Z,63.85
2022-12-18T18:54:02.337Z,70.35
2022-12-18T18:59:16.859Z,74.53
2022-12-18T19:01:44.402Z,73.60
2022-12-18T19:04:11.517Z,67.10
2022-12-18T19:06:38.508Z,92.50
2022-12-18T19:09:06.865Z,91.68
2022-12-18T19:11:52.204Z,89.88
2022-12-18T19:14:19.530Z,79.65
2022-12-18T19:16:46.456Z,103.13
2022-12-18T19:19:13.554Z,81.25
2022-12-18T19:21:40.733Z,98.38
2022-12-18T19:24:08.084Z,84.97
2022-12-18T19:26:37.756Z,99.57
2022-12-18T19:29:06.225Z,102.70
2022-12-18T19:31:35.891Z,90.85
2022-12-18T19:34:05.098Z,93.65
2022-12-18T19:36:32.272Z,102.38
2022-12-18T19:39:00.371Z,96.63
2022-12-18T19:41:29.116Z,96.22
2022-12-18T19:43:59.092Z,107.75
2022-12-18T19:46:26.231Z,135.88
2022-12-18T19:48:53.851Z,123.25
2022-12-18T19:51:25.039Z,117.95
2022-12-18T19:53:58.051Z,116.55
2022-12-18T19:56:26.939Z,99.95
2022-12-18T19:58:54.462Z,103.10
2022-12-18T20:01:22.415Z,105.80
2022-12-18T20:03:50.003Z,92.13
2022-12-18T20:06:19.726Z,84.40
2022-12-18T20:08:46.701Z,78.07
2022-12-18T20:11:13.819Z,83.88
2022-12-18T20:13:40.963Z,86.88
2022-12-18T20:16:08.409Z,86.68
2022-12-18T20:18:35.424Z,78.32
2022-12-18T20:21:03.658Z,82.38
2022-12-18T20:23:30.907Z,87.97
2022-12-18T20:26:00.288Z,88.43
2022-12-18T20:28:27.191Z,81.57
2022-12-18T20:31:01.484Z,96.90
2022-12-18T20:33:28.404Z,77.53
2022-12-18T20:36:00.035Z,98.50
2022-12-18T20:38:27.915Z,99.70
2022-12-18T20:40:56.297Z,95.30
2022-12-18T20:43:23.222Z,96.45
2022-12-18T20:45:50.144Z,78.97
2022-12-18T20:48:17.878Z,84.00
2022-12-18T20:50:58.425Z,77.68
2022-12-18T20:53:27.789Z,82.35
2022-12-18T20:55:54.812Z,94.72
2022-12-18T20:58:21.814Z,89.57
2022-12-18T21:00:48.737Z,79.07
2022-12-18T21:03:15.918Z,80.90
2022-12-18T21:05:43.014Z,84.45
2022-12-18T21:08:10.260Z,77.47
2022-12-18T21:10:39.678Z,88.47
2022-12-18T21:13:08.708Z,73.57
2022-12-18T21:15:37.211Z,72.43
2022-12-18T21:18:04.524Z,76.03
2022-12-18T21:20:31.669Z,86.82
2022-12-18T21:23:05.266Z,90.13
2022-12-18T21:25:45.609Z,79.75
2022-12-18T21:28:13.624Z,89.60
2022-12-18T21:30:41.030Z,81.68
2022-12-18T21:33:08.041Z,80.13
2022-12-18T21:35:35.000Z,77.55
2022-12-18T21:38:02.688Z,79.45
2022-12-18T21:40:32.822Z,77.53
2022-12-18T21:43:18.344Z,80.85
2022-12-18T21:45:45.368Z,79.70
2022-12-18T21:48:12.394Z,76.90
2022-12-18T21:50:39.347Z,79.53
2022-12-18T21:53:06.493Z,72.85
2022-12-18T21:55:33.492Z,82.93
2022-12-18T21:58:00.365Z,83.68
2022-12-18T22:00:27.394Z,73.53
2022-12-18T22:03:17.442Z,86.95
2022-12-18T22:05:41.385Z,84.90
2022-12-18T22:08:08.349Z,85.88
2022-12-18T22:10:35.393Z,72.00
2022-12-18T22:13:02.651Z,83.43
2022-12-18T22:15:29.730Z,77.00
2022-12-18T22:18:00.005Z,81.82
2022-12-18T22:20:29.256Z,80.63
2022-12-18T22:22:57.246Z,80.35
2022-12-18T22:25:24.188Z,82.43
2022-12-18T22:28:09.609Z,81.57
2022-12-18T22:30:36.610Z,81.70
2022-12-18T22:33:03.994Z,73.38
2022-12-18T22:35:31.060Z,79.03
2022-12-18T22:38:01.094Z,89.57
2022-12-18T22:40:28.596Z,74.90
2022-12-18T22:42:56.190Z,74.25
2022-12-18T22:45:23.941Z,80.95
2022-12-18T22:47:51.243Z,78.10
2022-12-18T22:50:18.423Z,82.40
2022-12-18T22:52:45.358Z,77.10
2022-12-18T22:55:12.389Z,75.63
2022-12-18T22:57:40.648Z,93.95
2022-12-18T23:00:12.006Z,78.32
2022-12-18T23:02:39.193Z,82.30
2022-12-18T23:05:06.876Z,91.32
2022-12-18T23:07:35.073Z,77.45
2022-12-18T23:10:02.026Z,86.47
2022-12-18T23:12:29.059Z,86.47
2022-12-18T23:14:56.214Z,83.68
2022-12-18T23:17:23.177Z,81.88
2022-12-18T23:19:50.190Z,71.43
2022-12-18T23:22:17.552Z,71.30
2022-12-18T23:24:44.545Z,79.63
2022-12-18T23:27:12.259Z,74.13
2022-12-18T23:29:40.291Z,86.82
2022-12-18T23:32:07.416Z,77.93
2022-12-18T23:34:34.440Z,80.63
2022-12-18T23:37:01.777Z,78.28
2022-12-18T23:39:30.277Z,76.65
2022-12-18T23:42:00.764Z,84.40
2022-12-18T23:44:27.953Z,84.40
2022-12-18T23:46:55.108Z,95.53
2022-12-18T23:49:22.295Z,80.72
2022-12-18T23:51:49.221Z,79.20
2022-12-18T23:54:16.205Z,91.35
2022-12-18T23:56:43.184Z,77.43
2022-12-18T23:59:10.329Z,88.30
